Elizabethtown, NC (28337)

4:46 PM EDT on April 27, 2017 (GMT -0400)
Miller Place, White Lake | | Change Station
Active Advisory: Flood Warning

Elev 62 ft 34.63 °N, 78.50 °W | Updated 1 second ago

Mostly Cloudy
Mostly Cloudy
81.3 °F
Feels Like 79 °F
N
4.9
Wind Variable Wind from South
Gusts 7.4 mph

Today
High -- | Low -- °F
--% Chance of Precip.
Yesterday
High -- | Low -- °F
Precip. -- in
Pressure 29.89 in
Visibility 10.0 miles
Clouds Clear
Heat Index 79 °F
Dew Point 20 °F
Humidity 10%
Rainfall 0.00 in
Snow Depth Not available.
6:28 AM 7:56 PM
Waxing Crescent, 3% visible
METAR KEYF 272100Z AUTO 20008KT 10SM CLR 27/17 A2989 RMK AO2 T02740171
Pressure 29.89 in
Visibility 10.0 miles
Clouds Clear
Heat Index 79 °F
Dew Point 20 °F
Humidity 10%
Rainfall 0.00 in
Snow Depth Not available.
6:28 AM 7:56 PM
Waxing Crescent, 3% visible
METAR KEYF 272100Z AUTO 20008KT 10SM CLR 27/17 A2989 RMK AO2 T02740171

Get Your Daily Forecast Email!

Thanks for signing up!

Be on the lookout for a verification email in your inbox.

You'll start receiving severe weather alerts in your inbox..

×

10-Day Weather Forecast

Almanac

Astronomy

Apr. 27, 2017 Rise Set
Actual Time
Civil Twilight
Nautical Twilight
Astronomical Twilight
Moon
Length of Visible Light
Length of Day
Tomorrow will be .
, % of the Moon is Illuminated

Today's Extremes

State Highs State Lows

Community

WunderPhotos

WunderBlog® & News

Nearby

Air Quality

  Air Quality AQ Index Pollutant
Not available.

Snow Depth

Station Depth Elevation

Earthquake Activity

City Distance Mag. Time & Date
Minimum magnitude displayed is 2.5.

Coastal Water Temperatures

Place Temperature

Stations

Nearby Weather Stations

Station Location Temp. Windchill Dew Point Humidity Wind Precip. Elev Updated Type
                   

Watches & Warnings

Flood Warning
Issued: 10:17 AM EDT Apr. 27, 2017 – National Weather Service

... Flood Warning now in effect until late Saturday night...
the Flood Warning continues for
the Cape Fear at Elizabethtown.
* Until late Saturday night.
* Flood stage is 25.0 feet.
* Forecast... the river is forecast to have a maximum value of 26.9 feet this
afternoon.
* Impact... at 27.0 feet... floodwaters will affect farmers' fields adjacent to the
river requiring the movement of farm equipment to higher ground.


Lat... Lon 3472 7865 3466 7852 3456 7838 3450 7847
          3459 7859 3465 7872




1017 am EDT Thu Apr 27 2017

The Flood Warning continues for
the Cape Fear at William o Huske lock and dam 3.
* Until further notice.
* At 9:00 am Thursday the stage was 47.87 feet.
* Flood stage is 42.0 feet.
* Minor flooding is occurring and minor flooding is forecast.
* Forecast... the river will continue to fall to a stage of 46.8 feet by tomorrow
morning.


Lat... Lon 3485 7886 3485 7875 3478 7874 3472 7865
          3465 7872 3472 7882